Time;durP1;ratioP1;P1;durP2;ratioP2;P2;SDS_P1;SDS_P2;PMS_P1;PMS_P2;Temp;Humidity;BMP_temperature;BMP_pressure;BME280_temperature;BME280_humidity;BME280_pressure;Samples;Min_cycle;Max_cycle;Signal;HPM_P1;HPM_P2
2022/08/19 06:58:46;;;;;;;61.47;10.52;;;;;;;31.66;39.91;94694.50;4795179;28;8506601;-77
2022/08/19 07:01:23;;;;;;;234.00;35.33;;;;;;;32.08;39.46;94703.81;5113721;28;20227;-78
2022/08/19 07:03:49;;;;;;;1046.57;235.80;;;;;;;32.08;40.03;94681.22;5106621;28;20161;-79
2022/08/19 07:06:17;;;;;;;17.00;6.63;;;;;;;31.96;39.09;94711.25;5103111;28;20188;-77
2022/08/19 07:08:46;;;;;;;13.52;6.85;;;;;;;31.66;40.42;94706.19;5104639;28;20169;-78
2022/08/19 07:11:14;;;;;;;12.57;6.70;;;;;;;31.79;40.62;94696.81;5104238;28;20169;-77
2022/08/19 07:13:43;;;;;;;10.45;6.50;;;;;;;32.11;41.08;94699.56;5086249;28;20272;-78
2022/08/19 07:16:10;;;;;;;11.63;6.38;;;;;;;32.48;38.07;94708.31;5102254;28;20579;-78
2022/08/19 07:18:36;;;;;;;14.43;6.88;;;;;;;32.47;38.21;94707.50;5097915;28;20660;-78
2022/08/19 07:21:10;;;;;;;14.23;6.53;;;;;;;32.38;37.70;94685.09;5102368;28;20265;-77
2022/08/19 07:23:35;;;;;;;17.05;9.43;;;;;;;32.47;37.58;94706.72;5111984;28;20173;-75
2022/08/19 07:26:10;;;;;;;17.70;7.00;;;;;;;32.50;38.06;94685.00;5112679;28;20188;-75
2022/08/19 07:28:38;;;;;;;15.77;6.07;;;;;;;32.85;37.19;94712.34;5100142;28;20168;-76
2022/08/19 07:31:05;;;;;;;10.45;6.85;;;;;;;32.82;36.22;94687.69;5082983;28;20667;-76
2022/08/19 07:33:32;;;;;;;12.18;5.72;;;;;;;33.01;38.11;94714.22;5095837;28;20201;-76
2022/08/19 07:35:58;;;;;;;13.90;5.63;;;;;;;33.37;36.58;94702.16;5103394;28;20222;-76
2022/08/19 07:38:24;;;;;;;12.13;5.95;;;;;;;33.56;36.74;94693.94;5111529;28;20606;-76
2022/08/19 07:40:51;;;;;;;11.45;5.60;;;;;;;33.70;35.23;94702.41;5101021;28;20162;-76
2022/08/19 07:43:24;;;;;;;11.88;5.50;;;;;;;33.63;36.58;94683.94;5095917;28;20176;-76
2022/08/19 07:45:56;;;;;;;9.65;6.05;;;;;;;33.34;37.16;94619.81;5076975;28;20574;-76
2022/08/19 07:48:25;;;;;;;10.00;6.32;;;;;;;33.94;35.17;94701.31;5111565;28;20247;-76
2022/08/19 07:50:55;;;;;;;10.20;4.85;;;;;;;33.78;35.74;94695.16;5102617;28;20184;-76
2022/08/19 07:53:22;;;;;;;9.30;5.82;;;;;;;33.37;36.24;94683.81;5102540;28;20254;-76
2022/08/19 07:55:48;;;;;;;12.13;6.18;;;;;;;33.53;36.95;94698.19;5110810;28;20196;-76
2022/08/19 07:58:18;;;;;;;12.07;5.60;;;;;;;33.95;35.03;94700.97;5110893;27;20601;-76
2022/08/19 08:00:45;;;;;;;14.43;5.32;;;;;;;34.19;35.20;94696.28;5116816;27;20177;-76
2022/08/19 08:03:11;;;;;;;12.77;5.45;;;;;;;34.56;35.31;94700.06;5129623;27;20176;-76
2022/08/19 08:11:05;;;;;;;14.00;5.82;;;;;;;34.77;34.89;94696.88;5124202;27;20637;-77
2022/08/19 08:13:32;;;;;;;12.57;5.15;;;;;;;35.16;33.02;94700.97;5118372;27;20184;-77
2022/08/19 08:15:58;;;;;;;11.23;6.53;;;;;;;35.25;33.78;94683.47;5131444;27;20172;-77
2022/08/19 08:18:24;;;;;;;8.13;4.95;;;;;;;35.40;32.50;94688.75;5131043;27;20172;-77
2022/08/19 08:20:50;;;;;;;10.13;4.68;;;;;;;35.28;32.55;94685.50;5131202;27;20224;-77
2022/08/19 08:23:25;;;;;;;11.50;5.22;;;;;;;35.33;32.55;94682.41;5130502;27;20168;-77
2022/08/19 08:25:54;;;;;;;21.30;5.57;;;;;;;35.32;32.46;94681.63;5113204;27;20775;-77
2022/08/19 08:28:20;;;;;;;10.00;4.88;;;;;;;35.18;32.45;94652.09;5117071;27;20259;-77
2022/08/19 08:30:47;;;;;;;11.88;4.30;;;;;;;34.98;31.99;94683.50;5110011;28;20651;-77
2022/08/19 08:33:16;;;;;;;8.63;4.57;;;;;;;34.77;33.29;94664.81;5120273;27;20206;-77
2022/08/19 08:35:42;;;;;;;4.55;4.15;;;;;;;35.15;32.78;94669.25;5119651;27;20705;-76
2022/08/19 08:38:07;;;;;;;7.35;4.63;;;;;;;35.66;33.18;94674.19;5131809;28;20177;-76
2022/08/19 08:40:49;;;;;;;10.20;4.90;;;;;;;35.82;32.14;94679.47;5132358;28;20168;-76
2022/08/19 08:43:30;;;;;;;10.57;4.93;;;;;;;35.75;31.28;94685.66;5132077;28;20658;-77
2022/08/19 08:46:03;;;;;;;11.40;4.97;;;;;;;35.76;30.67;94678.22;5132669;28;20172;-76
2022/08/19 08:48:47;;;;;;;11.10;4.75;;;;;;;35.94;31.57;94679.19;5113645;28;20599;-75
2022/08/19 08:51:18;;;;;;;12.88;5.18;;;;;;;35.76;30.73;94673.53;5135260;27;20163;-77
2022/08/19 08:53:48;;;;;;;11.80;5.00;;;;;;;35.74;31.98;94669.59;5107552;28;20288;-77
2022/08/19 08:56:14;;;;;;;8.52;4.00;;;;;;;35.82;31.96;94676.72;5116007;28;20256;-77
2022/08/19 08:58:45;;;;;;;8.45;4.00;;;;;;;35.83;31.72;94662.66;5096950;28;20686;-76
2022/08/19 09:01:11;;;;;;;9.07;4.63;;;;;;;36.01;29.91;94662.81;5113910;28;20222;-75
2022/08/19 09:03:39;;;;;;;5.05;3.47;;;;;;;35.36;30.04;94638.66;5113870;28;20171;-77
2022/08/19 09:06:27;;;;;;;6.32;3.75;;;;;;;35.64;31.33;94654.59;5114446;28;20560;-76
2022/08/19 09:09:06;;;;;;;7.30;4.30;;;;;;;35.77;30.54;94653.19;5114598;28;20654;-76
2022/08/19 09:11:40;;;;;;;4.38;3.67;;;;;;;35.25;31.07;94653.38;5114700;28;20638;-78
2022/08/19 09:14:15;;;;;;;7.43;4.05;;;;;;;35.23;30.59;94659.22;5114383;28;20217;-77
2022/08/19 09:16:41;;;;;;;8.32;3.45;;;;;;;35.27;30.16;94653.78;5114370;28;20251;-76
2022/08/19 09:19:08;;;;;;;9.18;4.22;;;;;;;35.30;30.19;94644.81;5114042;28;20670;-77
2022/08/19 09:21:38;;;;;;;6.20;3.80;;;;;;;35.29;28.74;94649.50;5114132;28;20176;-76
2022/08/19 09:24:04;;;;;;;5.53;3.38;;;;;;;35.12;29.24;94647.28;5117477;27;20169;-76
2022/08/19 09:26:34;;;;;;;2.92;2.70;;;;;;;34.87;28.89;94644.25;5129353;27;20177;-76
2022/08/19 09:29:01;;;;;;;2.92;2.45;;;;;;;34.50;28.63;94641.38;5133860;27;20240;-76
2022/08/19 09:31:29;;;;;;;5.05;3.20;;;;;;;34.61;28.52;94641.50;5126874;27;20164;-75
2022/08/19 09:33:58;;;;;;;5.18;2.65;;;;;;;34.72;27.57;94642.44;5135050;27;20204;-76
2022/08/19 09:36:28;;;;;;;4.53;2.85;;;;;;;34.35;28.19;94628.59;5135094;27;20173;-75
2022/08/19 09:38:55;;;;;;;3.78;3.25;;;;;;;34.16;28.53;94634.16;5134761;27;20251;-75
2022/08/19 09:41:24;;;;;;;5.43;3.22;;;;;;;33.71;29.67;94632.97;5116140;27;20662;-75
2022/08/19 09:43:52;;;;;;;5.07;3.10;;;;;;;33.82;30.19;94631.22;5134518;27;20263;-75
2022/08/19 09:46:20;;;;;;;3.08;2.78;;;;;;;33.99;27.85;94629.97;5133996;27;20191;-75
2022/08/19 09:48:48;;;;;;;3.08;2.78;;;;;;;34.07;29.59;94637.13;5134123;27;20259;-75
2022/08/19 09:51:16;;;;;;;6.70;3.20;;;;;;;34.28;27.91;94628.50;5133909;27;20620;-75
2022/08/19 09:53:43;;;;;;;5.03;3.75;;;;;;;34.42;29.20;94628.75;5133777;27;20267;-75
2022/08/19 09:56:09;;;;;;;5.00;3.00;;;;;;;34.58;28.58;94632.09;5133980;27;20221;-75
2022/08/19 09:58:35;;;;;;;3.70;3.08;;;;;;;34.62;27.31;94632.13;5133690;27;20220;-75
2022/08/19 10:01:02;;;;;;;6.60;2.78;;;;;;;34.55;27.04;94626.56;5115328;27;20253;-75
2022/08/19 10:03:29;;;;;;;3.10;2.80;;;;;;;34.36;28.54;94614.56;5133137;27;20172;-75
2022/08/19 10:05:57;;;;;;;3.97;2.90;;;;;;;34.34;27.82;94616.09;5102150;28;20181;-75
2022/08/19 10:08:28;;;;;;;4.38;2.78;;;;;;;34.20;27.17;94605.72;5113121;28;20181;-75
2022/08/19 10:10:55;;;;;;;4.78;3.90;;;;;;;34.22;26.72;94605.34;5113092;28;20237;-75
2022/08/19 10:13:28;;;;;;;3.83;2.80;;;;;;;34.31;27.21;94612.16;5102517;27;20272;-74
2022/08/19 10:15:57;;;;;;;5.38;2.88;;;;;;;34.30;27.01;94605.13;5129573;27;20263;-74
2022/08/19 10:18:25;;;;;;;5.47;2.85;;;;;;;34.22;27.24;94584.25;5114340;28;20184;-75
2022/08/19 10:20:54;;;;;;;6.00;3.60;;;;;;;34.36;28.43;94603.63;5132484;27;20169;-75
2022/08/19 10:23:20;;;;;;;4.85;3.28;;;;;;;34.30;27.29;94604.31;5133549;27;20540;-75
2022/08/19 10:25:46;;;;;;;3.35;2.97;;;;;;;34.25;27.34;94601.91;5115047;27;20263;-75
2022/08/19 10:28:11;;;;;;;4.93;3.00;;;;;;;34.13;27.21;94600.13;5133627;27;20171;-75
2022/08/19 10:30:39;;;;;;;3.92;3.42;;;;;;;33.97;27.56;94592.09;5133977;27;20932;-75
2022/08/19 10:33:06;;;;;;;8.02;3.45;;;;;;;33.80;28.59;94586.31;5134580;27;20180;-75
2022/08/19 10:35:32;;;;;;;4.18;3.38;;;;;;;33.54;28.90;94563.22;5133973;27;20196;-75
2022/08/19 10:37:59;;;;;;;6.55;3.95;;;;;;;33.75;28.90;94578.41;5133810;27;20724;-75
2022/08/19 10:40:27;;;;;;;9.02;3.55;;;;;;;33.83;28.14;94577.38;5133982;27;20207;-75
2022/08/19 10:42:53;;;;;;;4.97;3.47;;;;;;;33.65;28.56;94569.66;5128617;27;20279;-76
2022/08/19 10:45:22;;;;;;;7.07;3.40;;;;;;;33.49;28.28;94577.16;5113554;28;20169;-75
2022/08/19 10:47:47;;;;;;;5.28;3.10;;;;;;;33.32;28.81;94562.06;5113116;28;20204;-76
2022/08/19 10:52:56;;;;;;;4.68;3.65;;;;;;;33.66;30.12;94552.09;5126726;27;20184;-76
2022/08/19 10:58:13;;;;;;;4.70;3.90;;;;;;;33.75;29.53;94568.28;5132871;27;20288;-76
2022/08/19 11:00:40;;;;;;;5.95;3.80;;;;;;;33.48;28.69;94522.91;5121228;27;20169;-76
2022/08/19 11:03:05;;;;;;;5.53;3.58;;;;;;;33.74;28.45;94565.91;5112513;28;20643;-75
2022/08/19 11:05:31;;;;;;;4.93;3.63;;;;;;;33.59;29.70;94559.41;5112586;28;20172;-75
2022/08/19 11:07:56;;;;;;;4.95;3.25;;;;;;;33.63;28.77;94569.25;5125644;27;20183;-75
2022/08/19 11:10:23;;;;;;;5.75;3.60;;;;;;;33.64;29.47;94568.06;5132833;27;20191;-75
2022/08/19 11:12:52;;;;;;;8.63;4.50;;;;;;;33.76;30.84;94561.66;5121080;27;20202;-76
2022/08/19 11:15:18;;;;;;;9.82;4.85;;;;;;;33.90;30.77;94550.97;5111680;28;20284;-76
2022/08/19 11:17:43;;;;;;;4.50;3.80;;;;;;;34.11;29.80;94552.44;5121216;27;20667;-76
2022/08/19 11:20:11;;;;;;;4.70;3.38;;;;;;;34.30;29.77;94566.03;5112811;28;20264;-76
2022/08/19 11:22:37;;;;;;;5.10;4.13;;;;;;;34.40;29.54;94563.47;5127639;27;20168;-76
2022/08/19 11:25:04;;;;;;;9.30;4.32;;;;;;;34.53;29.75;94555.03;5124632;27;20183;-76
2022/08/19 11:27:30;;;;;;;5.05;3.20;;;;;;;34.64;28.65;94558.69;5133077;27;20172;-76
2022/08/19 11:29:55;;;;;;;4.50;3.50;;;;;;;34.72;29.46;94552.94;5098170;28;20183;-76
2022/08/19 11:32:21;;;;;;;7.22;4.15;;;;;;;34.84;28.73;94553.91;5102942;27;20169;-76
2022/08/19 11:34:46;;;;;;;6.65;3.50;;;;;;;34.83;29.07;94536.69;5112990;28;20189;-76
2022/08/19 11:37:12;;;;;;;6.88;4.00;;;;;;;34.94;28.95;94542.31;5112541;28;20173;-76
2022/08/19 11:39:38;;;;;;;8.57;3.17;;;;;;;34.95;28.13;94546.59;5112127;28;20161;-76
2022/08/19 11:44:50;;;;;;;4.85;3.58;;;;;;;34.83;28.62;94541.38;5124605;27;20175;-76
2022/08/19 11:47:16;;;;;;;5.28;3.13;;;;;;;34.75;27.84;94530.34;5132774;27;20974;-76
2022/08/19 11:49:42;;;;;;;3.90;2.80;;;;;;;34.73;28.63;94532.66;5115605;27;20172;-76
2022/08/19 11:52:07;;;;;;;4.30;3.08;;;;;;;34.65;27.81;94533.72;5116896;27;20172;-76
2022/08/19 11:54:33;;;;;;;9.73;3.15;;;;;;;34.65;28.47;94539.19;5111854;28;20197;-76
2022/08/19 11:56:59;;;;;;;6.45;3.45;;;;;;;34.30;27.58;94535.97;5112086;28;20248;-76
2022/08/19 11:59:26;;;;;;;3.53;3.22;;;;;;;33.90;28.58;94523.66;5128926;27;20164;-76
2022/08/19 12:01:52;;;;;;;7.10;3.63;;;;;;;33.60;28.90;94509.88;5129112;27;20161;-76
2022/08/19 12:04:17;;;;;;;5.78;3.67;;;;;;;33.60;29.92;94512.59;5127402;27;20164;-76
2022/08/19 12:06:42;;;;;;;6.15;3.17;;;;;;;33.66;29.30;94515.81;5116848;27;20165;-76
2022/08/19 12:09:10;;;;;;;5.47;3.28;;;;;;;33.71;29.80;94512.78;5125520;27;20164;-76
2022/08/19 12:11:36;;;;;;;4.25;3.38;;;;;;;33.67;28.95;94493.59;5132393;27;20222;-76
2022/08/19 12:14:02;;;;;;;5.03;3.17;;;;;;;33.78;29.56;94490.28;5128844;27;20627;-76
2022/08/19 12:16:30;;;;;;;6.45;3.55;;;;;;;33.84;29.82;94505.97;5112001;28;20245;-76
2022/08/19 12:18:57;;;;;;;5.38;3.25;;;;;;;33.88;28.61;94500.59;5111556;28;20252;-75
2022/08/19 12:21:28;;;;;;;5.00;4.43;;;;;;;33.99;29.16;94496.06;5110466;28;20189;-75
2022/08/19 12:23:55;;;;;;;4.97;3.00;;;;;;;34.19;28.97;94489.31;5111798;27;20566;-76
2022/08/19 12:26:21;;;;;;;6.53;4.35;;;;;;;34.23;28.55;94486.66;5131085;27;20241;-76
2022/08/19 12:28:47;;;;;;;6.97;3.25;;;;;;;34.28;28.34;94484.41;5130695;27;20161;-76
2022/08/19 12:31:13;;;;;;;5.50;3.13;;;;;;;34.31;28.37;94480.94;5101396;28;20173;-75
2022/08/19 12:33:41;;;;;;;8.10;3.60;;;;;;;34.30;28.19;94484.03;5108790;28;20226;-75
2022/08/19 12:36:09;;;;;;;6.65;4.00;;;;;;;34.20;28.36;94484.63;5110602;28;20169;-76
2022/08/19 12:38:36;;;;;;;5.40;3.40;;;;;;;34.03;28.62;94472.31;5120784;28;20233;-76
2022/08/19 12:41:06;;;;;;;4.35;3.40;;;;;;;34.00;28.85;94470.31;5110556;28;20588;-75
2022/08/19 12:43:33;;;;;;;5.53;3.50;;;;;;;34.03;28.30;94473.09;5110956;28;20565;-75
2022/08/19 12:45:58;;;;;;;5.25;3.55;;;;;;;33.98;28.67;94473.44;5110582;28;20575;-77
2022/08/19 12:48:24;;;;;;;7.53;3.00;;;;;;;33.94;28.11;94471.78;5109347;28;20169;-77
2022/08/19 12:50:49;;;;;;;3.70;3.13;;;;;;;33.80;29.11;94474.31;5109765;28;20173;-77
2022/08/19 12:53:15;;;;;;;6.22;3.42;;;;;;;33.87;29.79;94474.41;5091355;28;20711;-77
2022/08/19 12:55:42;;;;;;;7.28;3.35;;;;;;;33.97;28.97;94460.91;5109402;28;20205;-76
2022/08/19 12:58:08;;;;;;;5.88;4.28;;;;;;;34.04;29.86;94452.03;5110279;28;20687;-74
2022/08/19 13:00:34;;;;;;;9.88;6.90;;;;;;;34.14;29.12;94465.06;5110286;28;20659;-76
2022/08/19 13:02:59;;;;;;;5.88;4.70;;;;;;;34.21;29.03;94458.88;5110337;28;20184;-76
2022/08/19 13:05:30;;;;;;;4.78;3.30;;;;;;;34.29;29.25;94449.63;5110370;28;20215;-75
2022/08/19 13:07:59;;;;;;;8.80;3.30;;;;;;;34.43;28.83;94463.47;5110162;28;20188;-76
2022/08/19 13:10:28;;;;;;;6.20;3.70;;;;;;;34.50;29.10;94457.34;5092081;28;20635;-77
2022/08/19 13:12:54;;;;;;;5.05;3.13;;;;;;;34.58;28.63;94453.53;5110197;28;20180;-75
2022/08/19 13:15:21;;;;;;;5.75;3.70;;;;;;;34.46;27.80;94449.06;5110204;28;20200;-74
2022/08/19 13:17:49;;;;;;;3.88;3.53;;;;;;;34.31;29.72;94433.66;5110007;28;20651;-76
2022/08/19 13:20:16;;;;;;;6.43;3.70;;;;;;;34.41;28.35;94450.19;5110212;28;20663;-76
2022/08/19 13:22:42;;;;;;;6.63;3.97;;;;;;;34.44;27.84;94438.50;5126310;28;20651;-76
2022/08/19 13:25:08;;;;;;;7.38;3.50;;;;;;;34.42;28.24;94445.53;5130600;28;20194;-76
2022/08/19 13:27:35;;;;;;;8.32;3.40;;;;;;;34.39;28.40;94436.13;5130525;28;20168;-76
2022/08/19 13:35:30;;;;;;;9.05;3.45;;;;;;;34.20;28.01;94435.44;5130549;28;20211;-76
2022/08/19 13:37:55;;;;;;;6.82;3.78;;;;;;;34.17;28.18;94426.03;5132863;27;20164;-75
2022/08/19 13:40:23;;;;;;;4.68;3.47;;;;;;;34.20;28.84;94440.91;5134905;27;20172;-76
2022/08/19 13:42:51;;;;;;;8.82;3.70;;;;;;;34.11;29.18;94432.19;5134754;27;20179;-76
2022/08/19 13:45:19;;;;;;;4.68;3.60;;;;;;;33.91;28.85;94402.25;5134703;27;20164;-76
2022/08/19 13:47:47;;;;;;;5.93;3.28;;;;;;;34.02;28.37;94405.13;5134648;27;20176;-75
2022/08/19 13:50:16;;;;;;;9.15;4.10;;;;;;;34.04;28.56;94417.28;5134800;27;20172;-75
2022/08/19 13:52:42;;;;;;;3.70;3.30;;;;;;;34.09;28.15;94419.69;5108179;27;20233;-75
2022/08/19 13:55:10;;;;;;;4.85;2.97;;;;;;;34.20;28.41;94427.22;5118732;27;20192;-75
2022/08/19 13:57:38;;;;;;;5.15;3.33;;;;;;;34.21;28.28;94420.59;5133000;27;20329;-75
2022/08/19 14:00:10;;;;;;;4.55;3.72;;;;;;;34.09;27.91;94392.34;5135329;27;20175;-75
2022/08/19 14:02:37;;;;;;;3.97;2.95;;;;;;;34.19;28.65;94406.53;5132605;27;20224;-76
2022/08/19 14:05:05;;;;;;;7.32;3.67;;;;;;;34.21;28.94;94415.94;5118678;27;20156;-76
2022/08/19 14:07:31;;;;;;;6.30;3.35;;;;;;;34.28;28.72;94413.31;5133924;27;20168;-77
2022/08/19 14:09:56;;;;;;;7.40;3.55;;;;;;;34.17;28.94;94417.03;5133820;27;20172;-76
2022/08/19 14:12:22;;;;;;;8.73;3.60;;;;;;;34.15;28.59;94409.22;5133971;27;20156;-76
2022/08/19 14:14:48;;;;;;;3.83;3.47;;;;;;;34.01;28.55;94384.44;5133745;27;20207;-76
2022/08/19 14:17:13;;;;;;;7.65;3.47;;;;;;;34.18;28.46;94415.88;5134048;27;20164;-76
2022/08/19 14:19:39;;;;;;;5.25;4.20;;;;;;;34.23;28.14;94410.09;5133997;27;20161;-76
2022/08/19 14:22:05;;;;;;;5.30;3.83;;;;;;;34.18;28.12;94408.47;5112388;27;20752;-75
2022/08/19 14:24:30;;;;;;;3.45;2.88;;;;;;;34.06;29.02;94406.78;5112587;28;20168;-76
2022/08/19 14:26:57;;;;;;;5.78;3.58;;;;;;;34.03;28.67;94407.50;5113198;28;20161;-76
2022/08/19 14:29:23;;;;;;;12.15;3.78;;;;;;;34.00;28.51;94388.31;5111549;27;20188;-75
2022/08/19 14:31:49;;;;;;;5.50;3.40;;;;;;;34.01;28.46;94403.56;5112797;28;20173;-76
2022/08/19 14:34:14;;;;;;;6.63;3.05;;;;;;;33.95;28.52;94388.66;5116244;27;20213;-76
2022/08/19 14:36:41;;;;;;;3.70;3.40;;;;;;;33.98;28.42;94399.66;5112423;28;20281;-76
2022/08/19 14:39:08;;;;;;;6.78;3.58;;;;;;;33.96;28.69;94393.75;5113495;28;20285;-76
2022/08/19 14:41:33;;;;;;;4.88;3.40;;;;;;;33.99;28.52;94400.44;5111664;27;20181;-76
2022/08/19 14:44:00;;;;;;;8.98;4.78;;;;;;;33.79;28.92;94382.59;5110896;28;20222;-75
2022/08/19 14:46:27;;;;;;;5.95;4.25;;;;;;;33.88;28.66;94396.75;5111392;28;20543;-76
2022/08/19 14:48:53;;;;;;;4.05;3.65;;;;;;;33.81;28.70;94380.28;5111204;28;20177;-76
2022/08/19 14:51:20;;;;;;;5.50;3.83;;;;;;;33.97;28.70;94387.13;5110744;28;20226;-76
2022/08/19 14:53:48;;;;;;;5.20;3.55;;;;;;;33.96;28.63;94384.78;5110749;27;20203;-75
2022/08/19 14:56:16;;;;;;;5.28;3.40;;;;;;;33.98;28.41;94377.78;5132077;27;20173;-75
2022/08/19 14:58:43;;;;;;;7.72;3.35;;;;;;;33.90;29.31;94370.66;5131835;27;20295;-76
2022/08/19 15:01:09;;;;;;;4.03;3.50;;;;;;;33.92;29.51;94387.44;5113357;27;20180;-75
2022/08/19 15:03:35;;;;;;;7.25;3.50;;;;;;;33.80;29.30;94373.25;5117356;27;20169;-76
2022/08/19 15:06:03;;;;;;;5.53;3.88;;;;;;;33.81;29.83;94391.22;5111279;28;20523;-76
2022/08/19 15:08:31;;;;;;;7.10;3.97;;;;;;;33.81;29.22;94381.06;5110991;27;20176;-76
2022/08/19 15:10:58;;;;;;;10.70;3.70;;;;;;;33.82;29.51;94390.81;5111521;28;20169;-76
2022/08/19 15:13:26;;;;;;;12.10;3.90;;;;;;;33.82;29.76;94387.31;5111191;28;20177;-75
2022/08/19 15:15:51;;;;;;;4.00;3.40;;;;;;;33.72;29.78;94370.38;5105071;28;20295;-74
2022/08/19 15:18:19;;;;;;;5.82;3.70;;;;;;;33.76;29.24;94378.66;5115833;27;20660;-74
2022/08/19 15:20:46;;;;;;;7.22;3.88;;;;;;;33.49;30.01;94342.34;5098504;27;20169;-74
2022/08/19 15:23:12;;;;;;;5.75;3.80;;;;;;;33.58;29.60;94361.19;5111749;27;20169;-74
2022/08/19 15:25:38;;;;;;;9.30;4.30;;;;;;;33.71;29.68;94373.47;5115055;27;20694;-74
2022/08/19 15:28:03;;;;;;;6.95;4.35;;;;;;;33.64;29.55;94360.50;5101008;27;20255;-74
2022/08/19 15:30:29;;;;;;;11.55;4.25;;;;;;;33.67;29.86;94375.38;5115677;27;20169;-74
2022/08/19 15:32:56;;;;;;;5.43;4.05;;;;;;;33.62;29.98;94368.28;5114015;27;20187;-74
2022/08/19 15:35:23;;;;;;;11.70;4.25;;;;;;;33.65;30.32;94366.75;5118500;27;20197;-75
2022/08/19 15:37:50;;;;;;;6.10;3.53;;;;;;;33.74;30.60;94380.16;5131622;27;20183;-75
2022/08/19 15:40:16;;;;;;;6.15;3.85;;;;;;;33.75;30.64;94371.59;5113478;27;20169;-74
2022/08/19 15:42:43;;;;;;;8.45;4.00;;;;;;;33.70;30.61;94372.69;5114890;27;20188;-74
2022/08/19 15:45:11;;;;;;;7.82;3.92;;;;;;;33.66;30.93;94374.56;5130891;27;20164;-74
2022/08/19 15:47:38;;;;;;;11.85;4.53;;;;;;;33.61;31.20;94379.56;5129834;27;20168;-73
2022/08/19 15:50:22;;;;;;;6.45;4.05;;;;;;;33.48;31.03;94376.25;5128954;27;20230;-73
2022/08/19 15:52:53;;;;;;;8.38;4.28;;;;;;;33.37;30.97;94371.81;5129702;27;20176;-74
2022/08/19 15:55:25;;;;;;;8.50;4.03;;;;;;;33.31;31.66;94374.84;5129845;27;20588;-73
2022/08/19 16:08:49;;;;;;;8.25;4.20;;;;;;;33.20;31.44;94379.34;5114297;27;20188;-75
2022/08/19 16:11:19;;;;;;;6.63;3.47;;;;;;;33.16;31.05;94383.94;5129026;27;20647;-74
2022/08/19 16:13:50;;;;;;;7.45;4.05;;;;;;;33.07;31.44;94382.63;5125586;27;20168;-74
2022/08/19 16:16:28;;;;;;;5.50;3.72;;;;;;;33.00;31.64;94380.56;5129788;27;20173;-74
2022/08/19 16:18:55;;;;;;;5.22;3.80;;;;;;;33.02;31.90;94375.53;5127640;27;20177;-74
2022/08/19 16:21:22;;;;;;;5.32;3.70;;;;;;;32.99;31.74;94378.97;5110643;28;20585;-75
2022/08/19 16:23:49;;;;;;;10.95;4.05;;;;;;;32.97;31.73;94384.00;5111179;28;20240;-74
2022/08/19 16:26:18;;;;;;;7.70;4.10;;;;;;;32.91;31.71;94377.28;5092415;28;20188;-74
2022/08/19 16:28:44;;;;;;;5.22;4.25;;;;;;;32.84;32.24;94377.97;5110167;27;20623;-74
2022/08/19 16:31:11;;;;;;;7.82;4.03;;;;;;;32.78;32.27;94373.94;5118894;27;20553;-76
2022/08/19 16:33:36;;;;;;;8.15;3.97;;;;;;;32.73;31.84;94374.25;5111083;27;20188;-74
2022/08/19 16:36:04;;;;;;;9.40;3.95;;;;;;;32.69;31.98;94378.88;5111139;28;20213;-74
2022/08/19 16:38:30;;;;;;;6.40;3.60;;;;;;;32.60;32.58;94376.34;5110372;28;20177;-74
2022/08/19 16:40:55;;;;;;;5.40;3.40;;;;;;;32.53;32.87;94384.38;5110282;28;20173;-74
2022/08/19 16:43:21;;;;;;;5.65;3.65;;;;;;;32.25;32.78;94351.16;5122412;28;20179;-74
2022/08/19 16:45:51;;;;;;;5.38;3.70;;;;;;;32.38;33.20;94384.47;5126963;28;20252;-74
2022/08/19 16:48:18;;;;;;;6.93;4.18;;;;;;;32.32;32.97;94383.19;5110523;28;20221;-74
2022/08/19 16:50:45;;;;;;;7.75;4.38;;;;;;;32.22;33.51;94376.38;5113294;28;20179;-74
2022/08/19 16:53:10;;;;;;;8.38;4.18;;;;;;;32.20;33.17;94379.47;5120160;28;20177;-74
2022/08/19 16:55:36;;;;;;;10.63;3.90;;;;;;;32.20;33.17;94378.69;5110510;28;20625;-75
2022/08/19 16:58:03;;;;;;;8.13;3.75;;;;;;;32.01;33.68;94371.25;5118775;28;20225;-73
2022/08/19 17:00:30;;;;;;;4.85;3.50;;;;;;;31.97;33.76;94383.25;5110337;28;20641;-74
2022/08/19 17:02:55;;;;;;;7.22;3.78;;;;;;;31.91;34.34;94387.41;5097937;28;20673;-73
2022/08/19 17:05:21;;;;;;;5.07;3.88;;;;;;;31.91;33.88;94392.84;5130873;28;20168;-74
2022/08/19 17:07:46;;;;;;;11.57;4.25;;;;;;;31.89;34.08;94395.13;5111008;28;20184;-74
2022/08/19 17:10:12;;;;;;;5.80;3.30;;;;;;;31.86;33.52;94402.06;5120486;28;20180;-74
2022/08/19 17:12:37;;;;;;;7.57;4.38;;;;;;;31.72;33.75;94405.28;5134773;27;20165;-74
2022/08/19 17:15:06;;;;;;;5.88;3.97;;;;;;;31.68;34.31;94406.34;5134720;27;20219;-74
2022/08/19 17:17:32;;;;;;;11.80;3.60;;;;;;;31.67;34.24;94405.56;5131859;27;20177;-74
2022/08/19 17:19:59;;;;;;;7.30;4.00;;;;;;;31.61;34.33;94406.94;5130979;27;20195;-74
2022/08/19 17:22:25;;;;;;;5.30;3.67;;;;;;;31.56;34.37;94407.25;5124420;27;20247;-74
2022/08/19 17:24:51;;;;;;;5.70;4.65;;;;;;;31.52;34.49;94417.25;5116541;27;20267;-74
2022/08/19 17:27:18;;;;;;;5.20;4.63;;;;;;;31.51;34.80;94418.38;5117400;27;20180;-75
2022/08/19 17:29:44;;;;;;;10.38;3.83;;;;;;;31.33;34.89;94414.44;5117285;27;20245;-76
2022/08/19 17:32:10;;;;;;;9.07;3.90;;;;;;;31.30;35.30;94428.78;5115636;27;20173;-74
2022/08/19 17:34:36;;;;;;;8.50;4.38;;;;;;;31.22;35.51;94427.03;5115694;27;20312;-73
2022/08/19 17:37:01;;;;;;;14.88;5.63;;;;;;;30.92;36.73;94404.88;5131140;27;20180;-74
2022/08/19 17:39:27;;;;;;;12.18;6.18;;;;;;;30.76;37.88;94415.75;5133496;27;20176;-74
2022/08/19 17:41:52;;;;;;;26.92;8.48;;;;;;;30.72;37.90;94436.59;5118433;27;20180;-74
2022/08/19 17:44:18;;;;;;;10.65;7.47;;;;;;;30.53;38.15;94420.19;5130925;27;20160;-74
2022/08/19 17:46:45;;;;;;;9.25;5.35;;;;;;;30.49;38.09;94419.25;5126358;27;20186;-74
2022/08/19 17:49:11;;;;;;;22.75;10.38;;;;;;;30.52;38.89;94440.34;5121349;27;20180;-74
2022/08/19 17:51:45;;;;;;;20.73;13.05;;;;;;;30.43;39.36;94447.81;5130318;27;20173;-73
2022/08/19 17:54:17;;;;;;;20.75;11.40;;;;;;;30.31;40.06;94440.50;5132688;27;20191;-74
2022/08/19 17:56:45;;;;;;;32.42;19.23;;;;;;;30.15;40.50;94442.38;5120429;27;20172;-74
2022/08/19 17:59:11;;;;;;;26.77;12.63;;;;;;;29.88;40.67;94422.16;5133770;27;20714;-74
2022/08/19 18:01:37;;;;;;;21.08;12.30;;;;;;;29.87;41.64;94431.44;5133986;27;20263;-74
2022/08/19 18:04:06;;;;;;;20.48;14.00;;;;;;;29.81;42.53;94447.19;5133840;27;20276;-75
2022/08/19 18:06:31;;;;;;;23.15;12.48;;;;;;;29.69;42.35;94446.41;5133602;27;20676;-75
2022/08/19 18:08:57;;;;;;;21.95;10.10;;;;;;;29.58;42.47;94449.56;5127274;27;20176;-75
2022/08/19 18:11:22;;;;;;;32.47;16.30;;;;;;;29.52;42.99;94453.66;5114667;28;20190;-75
2022/08/19 18:13:48;;;;;;;29.55;15.43;;;;;;;29.41;43.54;94449.81;5123192;27;20172;-74
2022/08/19 18:16:15;;;;;;;21.33;13.77;;;;;;;29.26;44.12;94428.75;5123096;27;20177;-75
2022/08/19 18:18:42;;;;;;;18.30;10.40;;;;;;;29.27;44.01;94452.84;5131922;27;20639;-74
2022/08/19 18:21:10;;;;;;;19.65;10.65;;;;;;;29.20;44.03;94451.81;5121884;27;20172;-74
2022/08/19 18:23:36;;;;;;;15.57;7.53;;;;;;;29.14;44.69;94462.09;5120973;27;20249;-74
2022/08/19 18:26:02;;;;;;;14.43;8.77;;;;;;;29.05;44.55;94466.84;5120131;27;20161;-74
2022/08/19 18:28:28;;;;;;;18.15;8.30;;;;;;;28.96;44.34;94455.28;5116068;27;20229;-75
2022/08/19 18:30:54;;;;;;;24.98;14.35;;;;;;;28.83;45.43;94450.97;5125771;27;20175;-74
2022/08/19 18:33:19;;;;;;;15.07;7.65;;;;;;;28.71;45.77;94445.50;5125716;27;20174;-74
2022/08/19 18:35:47;;;;;;;35.17;14.68;;;;;;;28.70;46.29;94460.97;5121981;27;20197;-74
2022/08/19 18:49:19;;;;;;;41.50;16.77;;;;;;;28.33;48.16;94459.25;5131709;27;20183;-75
2022/08/19 18:51:44;;;;;;;42.92;17.17;;;;;;;28.30;49.06;94462.63;5126161;27;20554;-74
2022/08/19 18:54:11;;;;;;;46.53;16.58;;;;;;;28.06;48.74;94442.41;5118450;27;20651;-75
2022/08/19 18:56:41;;;;;;;41.95;16.33;;;;;;;28.09;49.24;94462.63;5111459;28;20176;-75
2022/08/19 18:59:06;;;;;;;41.90;16.13;;;;;;;28.08;49.11;94464.53;5117799;27;20219;-74
2022/08/19 19:01:35;;;;;;;46.58;16.73;;;;;;;28.00;49.43;94475.41;5112410;28;20169;-75
2022/08/19 19:04:09;;;;;;;52.25;17.25;;;;;;;27.91;49.83;94477.38;5132144;27;20179;-74
2022/08/19 19:06:39;;;;;;;52.55;16.45;;;;;;;27.86;49.93;94474.84;5116120;27;20204;-75
2022/08/19 19:09:06;;;;;;;53.30;23.33;;;;;;;27.73;50.78;94466.69;5132173;27;20233;-75